PORT of AGADIR

Country: Morocco Country: Morocco (MA)
Latitude / Longitude: 30.4215° / -9.634° Show on Map Show on Map
Local Time:  UTC +1
UN/LOCODE: MAAGA
Expected Arrivals: 7

Vessels in Port


No Records Found

Recent Arrivals & Departures


Vessel Name
Arrival (UTC)
Arrival (LT)
Departure (UTC)
Departure (LT)
Vessel Type: Tankers  TINGIS 2014-08-26 16:27:00 2014-08-26 17:27:00 2014-09-20 08:15:00 2014-09-20 09:15:00
Vessel Type: Cargo Vessels  ANNA SIRKKA 2014-09-16 16:10:00 2014-09-16 17:10:00 2014-09-18 19:50:00 2014-09-18 20:50:00
Vessel Type: Yachts & Others  HIGHLAND PRINCESS 2014-09-15 16:24:00 2014-09-15 17:24:00 2014-09-18 13:15:00 2014-09-18 14:15:00
Vessel Type: Cargo Vessels  UOS FREEDOM 2014-09-15 06:11:00 2014-09-15 07:11:00 2014-09-16 09:22:00 2014-09-16 10:22:00
Vessel Type: Cargo Vessels  MARAKI 2014-09-12 12:42:00 2014-09-12 13:42:00 2014-09-16 05:19:00 2014-09-16 06:19:00
Vessel Type: Cargo Vessels  LADY ROSEMARY 2014-08-19 15:31:00 2014-08-19 16:31:00 2014-09-15 22:07:00 2014-09-15 23:07:00
Vessel Type: Cargo Vessels  IDA 2014-09-15 20:44:00 2014-09-15 21:44:00
Vessel Type: Fishing  VILLA DE MARIN 2014-09-15 08:12:00 2014-09-15 09:12:00 2014-09-15 18:10:00 2014-09-15 19:10:00
Vessel Type: Cargo Vessels  BUTES 2014-09-11 12:04:00 2014-09-11 13:04:00 2014-09-15 15:52:00 2014-09-15 16:52:00
Vessel Type: Cargo Vessels  WMS HARLINGEN 2014-09-14 16:43:00 2014-09-14 17:43:00

Expected Arrivals


Vessel Name
Scheduled Arrival (UTC)
Scheduled Arrival (LT)
Estimated Arrival (UTC)
Estimated Arrival (LT)
Vessel Type: Cargo Vessels  RBD DALMATIA 2014-09-21 20:00:00 2014-09-21 21:00:00 2014-09-21 15:13:00 2014-09-21 16:13:00
Vessel Type: Cargo Vessels  AFRICA B 2014-09-21 21:00:00 2014-09-21 22:00:00
Vessel Type: Tankers  CORAL FAVIA 2014-09-22 07:00:00 2014-09-22 08:00:00 2014-09-22 05:15:00 2014-09-22 06:15:00
Vessel Type: Cargo Vessels  LADY ROSEBUD 2014-09-22 23:00:00 2014-09-23 00:00:00 2014-09-22 18:04:00 2014-09-22 19:04:00
Vessel Type: Cargo Vessels  BERUM 2014-09-23 10:00:00 2014-09-23 11:00:00 2014-09-24 07:34:00 2014-09-24 08:34:00
Vessel Type: Cargo Vessels  GOMERA 2014-09-23 15:00:00 2014-09-23 16:00:00 2014-09-24 05:14:00 2014-09-24 06:14:00
Vessel Type: Cargo Vessels  UAL COLOGNE 2014-09-25 18:00:00 2014-09-25 19:00:00 2014-09-26 06:07:00 2014-09-26 07:07:00

Wind Forecast


    
Time (UTC)
Speed
Direction
Temperature
2014-09-20 21:00:00 11 knots 352° 23°C
2014-09-21 00:00:00 2 knots 343° 23°C
2014-09-21 03:00:00 3 knots 102° 23°C
2014-09-21 06:00:00 7 knots 182° 22°C
2014-09-21 09:00:00 8 knots 156° 24°C
2014-09-21 12:00:00 8 knots 324° 25°C
2014-09-21 15:00:00 11 knots 334° 22°C
2014-09-21 18:00:00 8 knots 348° 23°C
2014-09-21 21:00:00 5 knots 340° 22°C
2014-09-22 00:00:00 4 knots 346° 23°C
2014-09-22 03:00:00 5 knots 344° 22°C
2014-09-22 06:00:00 6 knots 348° 22°C
2014-09-22 09:00:00 6 knots 344° 22°C
2014-09-22 12:00:00 11 knots 333° 22°C
2014-09-22 15:00:00 15 knots 346° 22°C
2014-09-22 18:00:00 15 knots 358° 23°C
2014-09-22 21:00:00 14 knots 350° 22°C